Time;durP1;ratioP1;P1;durP2;ratioP2;P2;SDS_P1;SDS_P2;PMS_P1;PMS_P2;Temp;Humidity;BMP_temperature;BMP_pressure;BME280_temperature;BME280_humidity;BME280_pressure;Samples;Min_cycle;Max_cycle;Signal;HPM_P1;HPM_P2
2022/01/27 00:02:50;;;;;;;66.38;26.67;;;;;;;;;;5072625;28;20044;-69
2022/01/27 00:05:21;;;;;;;61.05;25.48;;;;;;;;;;5073025;28;20040;-68
2022/01/27 00:08:03;;;;;;;61.53;25.90;;;;;;;;;;5072815;28;20076;-69
2022/01/27 00:10:48;;;;;;;67.28;27.63;;;;;;;;;;5038389;28;20048;-69
2022/01/27 00:13:16;;;;;;;65.78;28.50;;;;;;;;;;5038412;28;20411;-69
2022/01/27 00:15:43;;;;;;;65.22;26.95;;;;;;;;;;5055040;28;20377;-69
2022/01/27 00:18:15;;;;;;;62.88;27.00;;;;;;;;;;5054833;28;20500;-69
2022/01/27 00:20:42;;;;;;;59.65;26.48;;;;;;;;;;5073419;28;20059;-69
2022/01/27 00:23:08;;;;;;;62.92;26.25;;;;;;;;;;5054730;28;20040;-68
2022/01/27 00:25:34;;;;;;;58.97;26.30;;;;;;;;;;5054954;28;20044;-69
2022/01/27 00:28:00;;;;;;;66.10;27.25;;;;;;;;;;5056173;28;20565;-69
2022/01/27 00:30:26;;;;;;;58.95;25.70;;;;;;;;;;5055041;28;20048;-70
2022/01/27 00:32:52;;;;;;;56.35;24.98;;;;;;;;;;5038618;28;20044;-66
2022/01/27 00:35:18;;;;;;;59.08;25.90;;;;;;;;;;5054790;28;20041;-67
2022/01/27 00:37:44;;;;;;;58.88;24.98;;;;;;;;;;5072566;28;20052;-67
2022/01/27 00:40:12;;;;;;;65.60;26.67;;;;;;;;;;5054923;28;20041;-69
2022/01/27 00:42:38;;;;;;;59.75;25.17;;;;;;;;;;5055233;28;20178;-70
2022/01/27 00:45:05;;;;;;;57.90;24.80;;;;;;;;;;5072805;28;20047;-69
2022/01/27 00:47:31;;;;;;;60.65;25.92;;;;;;;;;;5072563;28;20041;-69
2022/01/27 00:49:57;;;;;;;59.28;26.88;;;;;;;;;;5054515;28;20468;-68
2022/01/27 00:52:38;;;;;;;63.50;26.98;;;;;;;;;;5054663;28;20124;-69
2022/01/27 00:55:08;;;;;;;66.45;28.42;;;;;;;;;;5054523;28;20056;-68
2022/01/27 00:57:52;;;;;;;57.03;24.40;;;;;;;;;;5055783;28;20044;-69
2022/01/27 01:00:32;;;;;;;61.50;26.85;;;;;;;;;;5058057;28;20095;-69
2022/01/27 01:03:06;;;;;;;61.05;27.60;;;;;;;;;;5075999;28;20400;-69
2022/01/27 01:11:17;;;;;;;62.42;26.77;;;;;;;;;;5058333;28;20487;-68
2022/01/27 01:16:04;;;;;;;57.72;25.83;;;;;;;;;;5058227;28;20051;-68
2022/01/27 01:32:24;;;;;;;55.05;26.05;;;;;;;;;;5017167;28;20041;-67
2022/01/27 01:34:51;;;;;;;48.85;22.05;;;;;;;;;;5016947;28;20058;-69
2022/01/27 01:37:19;;;;;;;56.20;23.77;;;;;;;;;;5017282;28;20507;-68
2022/01/27 01:39:45;;;;;;;51.45;24.88;;;;;;;;;;5017048;28;20406;-68
2022/01/27 01:42:12;;;;;;;55.22;23.33;;;;;;;;;;5000717;28;20129;-69
2022/01/27 01:44:38;;;;;;;58.60;25.83;;;;;;;;;;5000873;28;20045;-68
2022/01/27 01:47:05;;;;;;;55.10;24.15;;;;;;;;;;5033614;28;20053;-68
2022/01/27 01:49:31;;;;;;;52.22;24.77;;;;;;;;;;5000931;28;20049;-68
2022/01/27 01:51:58;;;;;;;56.78;25.10;;;;;;;;;;5016969;28;20060;-70
2022/01/27 01:54:24;;;;;;;51.80;23.42;;;;;;;;;;5016667;28;20119;-68
2022/01/27 01:56:51;;;;;;;49.17;24.30;;;;;;;;;;5033223;28;20099;-69
2022/01/27 01:59:17;;;;;;;55.45;23.83;;;;;;;;;;5016415;28;20061;-68
2022/01/27 02:01:43;;;;;;;47.97;23.10;;;;;;;;;;5032791;28;20058;-68
2022/01/27 02:04:10;;;;;;;50.25;23.35;;;;;;;;;;5016653;28;20050;-68
2022/01/27 02:06:42;;;;;;;50.53;23.92;;;;;;;;;;5028472;28;20056;-68
2022/01/27 02:19:54;;;;;;;51.55;24.00;;;;;;;;;;5056872;28;20419;-69
2022/01/27 02:22:21;;;;;;;51.58;24.13;;;;;;;;;;5074613;28;20051;-68
2022/01/27 02:24:48;;;;;;;52.08;22.65;;;;;;;;;;5056411;28;20097;-68
2022/01/27 02:27:15;;;;;;;48.55;23.80;;;;;;;;;;5056545;28;20059;-67
2022/01/27 02:29:41;;;;;;;49.90;23.17;;;;;;;;;;5056102;28;20533;-68
2022/01/27 02:32:07;;;;;;;47.17;21.27;;;;;;;;;;5074498;28;20123;-69
2022/01/27 02:34:33;;;;;;;52.95;24.75;;;;;;;;;;5056667;28;20084;-68
2022/01/27 02:36:59;;;;;;;52.17;24.33;;;;;;;;;;5039694;28;20098;-68
2022/01/27 02:39:26;;;;;;;52.67;23.52;;;;;;;;;;5074257;28;20084;-67
2022/01/27 02:41:57;;;;;;;54.30;23.83;;;;;;;;;;5039455;28;20039;-69
2022/01/27 02:44:32;;;;;;;54.35;24.85;;;;;;;;;;5056283;28;20059;-68
2022/01/27 02:46:58;;;;;;;52.70;24.33;;;;;;;;;;5056385;28;20044;-68
2022/01/27 02:49:24;;;;;;;55.20;23.45;;;;;;;;;;5073716;28;20052;-69
2022/01/27 02:51:50;;;;;;;53.20;22.52;;;;;;;;;;5023734;28;20052;-70
2022/01/27 02:54:16;;;;;;;43.70;20.85;;;;;;;;;;5052694;28;20049;-69
2022/01/27 02:56:47;;;;;;;58.30;25.33;;;;;;;;;;5052658;28;20403;-69
2022/01/27 02:59:17;;;;;;;61.38;25.15;;;;;;;;;;5056199;28;20048;-69
2022/01/27 03:01:47;;;;;;;53.38;24.35;;;;;;;;;;5073802;28;20495;-70
2022/01/27 03:04:13;;;;;;;57.40;25.13;;;;;;;;;;5056161;28;20131;-68
2022/01/27 03:06:39;;;;;;;48.83;23.65;;;;;;;;;;5039209;28;20045;-70
2022/01/27 03:09:05;;;;;;;50.60;23.20;;;;;;;;;;5039169;28;20052;-68
2022/01/27 03:11:35;;;;;;;50.15;23.15;;;;;;;;;;5073530;28;20041;-69
2022/01/27 03:14:01;;;;;;;56.67;25.23;;;;;;;;;;5055803;28;20059;-68
2022/01/27 03:16:27;;;;;;;58.00;24.80;;;;;;;;;;5056013;28;20036;-69
2022/01/27 03:18:53;;;;;;;49.35;22.58;;;;;;;;;;5055778;28;20084;-69
2022/01/27 03:21:19;;;;;;;48.70;24.67;;;;;;;;;;5054882;28;20095;-69
2022/01/27 03:23:46;;;;;;;55.28;24.58;;;;;;;;;;5055528;28;20044;-68
2022/01/27 03:26:12;;;;;;;51.55;24.00;;;;;;;;;;5055654;28;20044;-69
2022/01/27 03:28:38;;;;;;;56.33;24.27;;;;;;;;;;5073589;28;20111;-68
2022/01/27 03:31:04;;;;;;;52.40;23.30;;;;;;;;;;5055233;28;20057;-69
2022/01/27 03:33:30;;;;;;;54.35;22.98;;;;;;;;;;5038444;28;20056;-69
2022/01/27 03:35:56;;;;;;;46.05;21.50;;;;;;;;;;5073222;28;20068;-69
2022/01/27 03:38:22;;;;;;;52.97;22.10;;;;;;;;;;5055214;28;20407;-68
2022/01/27 03:40:48;;;;;;;50.70;22.88;;;;;;;;;;5073156;28;20484;-67
2022/01/27 03:43:14;;;;;;;47.50;22.25;;;;;;;;;;5055097;28;20127;-67
2022/01/27 03:45:40;;;;;;;53.65;23.00;;;;;;;;;;5073083;28;20396;-68
2022/01/27 03:48:07;;;;;;;49.28;21.75;;;;;;;;;;5055216;28;20395;-68
2022/01/27 03:50:33;;;;;;;51.17;22.88;;;;;;;;;;5055144;28;20044;-67
2022/01/27 03:52:59;;;;;;;48.05;21.48;;;;;;;;;;5073334;28;20041;-68
2022/01/27 03:55:25;;;;;;;49.63;23.15;;;;;;;;;;5055315;28;20102;-68
2022/01/27 03:57:51;;;;;;;50.97;23.52;;;;;;;;;;5073100;28;20048;-67
2022/01/27 04:00:17;;;;;;;51.63;22.95;;;;;;;;;;5055912;28;20098;-68
2022/01/27 04:02:58;;;;;;;48.80;22.20;;;;;;;;;;5071743;28;20049;-69
2022/01/27 04:05:24;;;;;;;59.25;24.63;;;;;;;;;;5058115;28;20047;-68
2022/01/27 04:07:56;;;;;;;52.38;22.20;;;;;;;;;;5093127;28;20051;-68
2022/01/27 04:10:25;;;;;;;54.63;23.73;;;;;;;;;;5093304;28;20511;-68
2022/01/27 04:12:51;;;;;;;50.30;21.65;;;;;;;;;;5093316;28;20059;-68
2022/01/27 04:15:17;;;;;;;57.30;24.83;;;;;;;;;;5074893;28;20052;-68
2022/01/27 04:17:43;;;;;;;56.05;23.23;;;;;;;;;;5093161;28;20044;-68
2022/01/27 04:20:09;;;;;;;53.45;22.60;;;;;;;;;;5074731;28;20040;-69
2022/01/27 04:22:35;;;;;;;54.17;22.50;;;;;;;;;;5092978;28;20044;-69
2022/01/27 04:25:01;;;;;;;56.58;23.08;;;;;;;;;;5074727;28;20089;-68
2022/01/27 04:27:31;;;;;;;54.50;23.10;;;;;;;;;;5092838;28;20040;-68
2022/01/27 04:29:58;;;;;;;53.88;21.98;;;;;;;;;;5093367;28;20044;-69
2022/01/27 04:32:30;;;;;;;51.22;22.52;;;;;;;;;;5093676;28;20147;-68
2022/01/27 04:35:04;;;;;;;50.63;22.75;;;;;;;;;;5062047;28;20085;-68
2022/01/27 04:37:35;;;;;;;49.28;23.77;;;;;;;;;;5078682;28;20055;-68
2022/01/27 04:40:10;;;;;;;51.83;21.48;;;;;;;;;;5096811;28;20450;-67
2022/01/27 04:42:53;;;;;;;51.08;21.92;;;;;;;;;;5096887;28;20083;-68
2022/01/27 04:45:24;;;;;;;50.22;21.25;;;;;;;;;;5096965;28;20052;-69
2022/01/27 04:47:55;;;;;;;50.47;22.20;;;;;;;;;;5096868;28;20052;-69
2022/01/27 04:50:21;;;;;;;50.30;23.20;;;;;;;;;;5096554;28;20128;-69
2022/01/27 04:52:50;;;;;;;54.13;22.35;;;;;;;;;;5078599;28;20485;-70
2022/01/27 04:55:18;;;;;;;46.75;21.60;;;;;;;;;;5096851;28;20044;-67
2022/01/27 04:57:45;;;;;;;50.60;22.98;;;;;;;;;;5096778;28;20063;-68
2022/01/27 05:00:15;;;;;;;48.28;20.17;;;;;;;;;;5096337;28;20399;-68
2022/01/27 05:02:54;;;;;;;52.78;22.42;;;;;;;;;;5061641;28;20499;-67
2022/01/27 05:05:21;;;;;;;49.45;21.75;;;;;;;;;;5078140;28;20506;-69
2022/01/27 05:07:55;;;;;;;53.58;22.48;;;;;;;;;;5096403;28;20058;-69
2022/01/27 05:10:24;;;;;;;48.38;21.95;;;;;;;;;;5078142;28;20052;-69
2022/01/27 05:12:53;;;;;;;42.97;20.65;;;;;;;;;;5078065;28;20040;-69
2022/01/27 05:15:21;;;;;;;52.00;21.67;;;;;;;;;;5096184;28;20119;-69
2022/01/27 05:17:47;;;;;;;47.15;19.58;;;;;;;;;;5096313;28;20044;-68
2022/01/27 05:20:13;;;;;;;48.80;23.40;;;;;;;;;;5077840;28;20044;-67
2022/01/27 05:22:39;;;;;;;47.65;21.35;;;;;;;;;;5078331;28;20044;-67
2022/01/27 05:25:05;;;;;;;47.63;20.95;;;;;;;;;;5077873;28;20551;-69
2022/01/27 05:27:31;;;;;;;44.67;20.80;;;;;;;;;;5061096;28;20044;-68
2022/01/27 05:29:57;;;;;;;47.80;21.35;;;;;;;;;;5077845;28;20044;-68
2022/01/27 05:32:23;;;;;;;49.40;21.20;;;;;;;;;;5096177;28;20052;-68
2022/01/27 05:34:49;;;;;;;48.95;21.02;;;;;;;;;;5095807;28;20044;-67
2022/01/27 05:37:15;;;;;;;52.80;22.20;;;;;;;;;;5077479;28;20422;-69
2022/01/27 05:39:41;;;;;;;50.88;21.45;;;;;;;;;;5095891;28;20168;-68
2022/01/27 05:42:07;;;;;;;50.58;21.42;;;;;;;;;;5095784;28;20032;-68
2022/01/27 05:44:33;;;;;;;48.45;20.15;;;;;;;;;;5094454;28;20554;-68
2022/01/27 05:46:59;;;;;;;50.35;21.50;;;;;;;;;;5095356;28;20508;-67
2022/01/27 05:49:25;;;;;;;51.55;21.13;;;;;;;;;;5077668;28;20048;-68
2022/01/27 05:51:51;;;;;;;49.22;20.13;;;;;;;;;;5095973;28;20044;-68
2022/01/27 05:54:17;;;;;;;45.13;19.92;;;;;;;;;;5060861;28;20048;-67
2022/01/27 05:56:43;;;;;;;51.28;20.65;;;;;;;;;;5077213;28;20529;-67
2022/01/27 05:59:09;;;;;;;50.10;21.83;;;;;;;;;;5077261;28;20102;-68
2022/01/27 06:01:35;;;;;;;45.28;20.88;;;;;;;;;;5095411;28;20048;-68
2022/01/27 06:04:01;;;;;;;49.97;21.52;;;;;;;;;;5095084;28;20048;-69
2022/01/27 06:06:27;;;;;;;51.25;21.33;;;;;;;;;;5076812;28;20476;-68
2022/01/27 06:08:53;;;;;;;50.50;21.48;;;;;;;;;;5077014;28;20074;-68
2022/01/27 06:11:19;;;;;;;47.75;20.05;;;;;;;;;;5076928;28;20065;-67
2022/01/27 06:13:45;;;;;;;53.72;21.50;;;;;;;;;;5095054;28;20132;-68
2022/01/27 06:16:12;;;;;;;52.35;21.85;;;;;;;;;;5094997;28;20040;-69
2022/01/27 06:18:38;;;;;;;49.25;20.20;;;;;;;;;;5095045;28;20051;-69
2022/01/27 06:21:06;;;;;;;60.78;22.55;;;;;;;;;;5077111;28;20049;-69
2022/01/27 06:23:32;;;;;;;60.08;22.92;;;;;;;;;;5076645;28;20127;-69
2022/01/27 06:26:02;;;;;;;56.25;21.50;;;;;;;;;;5077097;28;20471;-68
2022/01/27 06:28:28;;;;;;;60.45;21.92;;;;;;;;;;5094808;28;20225;-69
2022/01/27 06:30:54;;;;;;;58.05;24.00;;;;;;;;;;5095211;28;20620;-68
2022/01/27 06:33:22;;;;;;;66.30;24.42;;;;;;;;;;5059826;28;20099;-69
2022/01/27 06:35:48;;;;;;;63.80;25.48;;;;;;;;;;5094640;28;20479;-68
2022/01/27 06:38:14;;;;;;;63.20;23.90;;;;;;;;;;5094962;28;20048;-69
2022/01/27 06:40:40;;;;;;;63.70;25.45;;;;;;;;;;5076556;28;20080;-69
2022/01/27 06:43:06;;;;;;;71.63;25.02;;;;;;;;;;5076555;28;20054;-69
2022/01/27 06:45:32;;;;;;;65.68;23.73;;;;;;;;;;5076327;28;20052;-70
2022/01/27 06:47:58;;;;;;;65.93;23.70;;;;;;;;;;5076025;28;20040;-69
2022/01/27 06:50:24;;;;;;;76.53;25.30;;;;;;;;;;5059518;28;20178;-69
2022/01/27 06:52:50;;;;;;;66.03;25.75;;;;;;;;;;5076129;28;20055;-69
2022/01/27 06:55:21;;;;;;;70.10;24.55;;;;;;;;;;5094176;28;20093;-69
2022/01/27 06:57:47;;;;;;;69.32;25.90;;;;;;;;;;5094300;28;20051;-69
2022/01/27 07:00:13;;;;;;;76.28;26.23;;;;;;;;;;5075797;28;20091;-69
2022/01/27 07:02:39;;;;;;;74.03;25.92;;;;;;;;;;5094128;28;20488;-69
2022/01/27 07:05:05;;;;;;;57.30;20.63;;;;;;;;;;5075876;28;20048;-70
2022/01/27 07:07:31;;;;;;;64.43;25.67;;;;;;;;;;5094325;28;20077;-69
2022/01/27 07:09:57;;;;;;;67.85;25.05;;;;;;;;;;5075728;28;20044;-69
2022/01/27 07:12:23;;;;;;;61.05;24.27;;;;;;;;;;5094438;28;20047;-69
2022/01/27 07:14:49;;;;;;;60.40;23.55;;;;;;;;;;5075782;28;20473;-70
2022/01/27 07:17:18;;;;;;;53.70;21.58;;;;;;;;;;5075972;28;20352;-69
2022/01/27 07:19:44;;;;;;;52.47;20.40;;;;;;;;;;5093875;28;20527;-69
2022/01/27 07:22:10;;;;;;;56.40;24.10;;;;;;;;;;5093959;28;20442;-70
2022/01/27 07:24:36;;;;;;;60.50;23.17;;;;;;;;;;5093686;28;20040;-70
2022/01/27 07:27:02;;;;;;;55.00;21.77;;;;;;;;;;5094291;28;20040;-69
2022/01/27 07:29:28;;;;;;;69.60;23.80;;;;;;;;;;5093559;28;20040;-70
2022/01/27 07:31:54;;;;;;;58.70;22.65;;;;;;;;;;5093792;28;20052;-69
2022/01/27 07:34:20;;;;;;;62.05;22.92;;;;;;;;;;5093897;28;20063;-70
2022/01/27 07:36:47;;;;;;;65.80;24.10;;;;;;;;;;5075864;28;20067;-69
2022/01/27 07:39:16;;;;;;;70.72;23.85;;;;;;;;;;5093440;28;20123;-69
2022/01/27 07:41:44;;;;;;;57.22;20.75;;;;;;;;;;5094578;28;20108;-69
2022/01/27 07:44:10;;;;;;;65.28;23.63;;;;;;;;;;5093188;28;20483;-69
2022/01/27 07:46:36;;;;;;;73.05;20.70;;;;;;;;;;5075371;28;20049;-68
2022/01/27 07:49:03;;;;;;;42.88;18.88;;;;;;;;;;5093728;28;20055;-70
2022/01/27 07:51:29;;;;;;;51.13;20.45;;;;;;;;;;5075232;28;20042;-69
2022/01/27 07:53:55;;;;;;;45.60;18.95;;;;;;;;;;5075137;28;20130;-69
2022/01/27 07:56:21;;;;;;;45.40;18.00;;;;;;;;;;5058641;28;20050;-69
2022/01/27 07:58:47;;;;;;;35.45;15.68;;;;;;;;;;5075345;28;20487;-69
2022/01/27 08:01:13;;;;;;;50.83;19.30;;;;;;;;;;5075187;28;20082;-69
2022/01/27 08:03:40;;;;;;;45.50;18.73;;;;;;;;;;5074991;28;20487;-70
2022/01/27 08:06:06;;;;;;;43.65;18.98;;;;;;;;;;5093445;28;20044;-69
2022/01/27 08:08:32;;;;;;;38.03;15.95;;;;;;;;;;5057991;28;20552;-69
2022/01/27 08:10:58;;;;;;;36.70;17.33;;;;;;;;;;5074997;28;20044;-70
2022/01/27 08:13:24;;;;;;;34.95;15.35;;;;;;;;;;5092997;28;20082;-69
2022/01/27 08:15:50;;;;;;;38.97;15.57;;;;;;;;;;5075018;28;20044;-69
2022/01/27 08:18:16;;;;;;;39.58;15.95;;;;;;;;;;5075541;28;20044;-69
2022/01/27 08:20:43;;;;;;;31.90;14.32;;;;;;;;;;5093176;28;20372;-69
2022/01/27 08:23:09;;;;;;;39.35;15.98;;;;;;;;;;5074782;28;20495;-69
2022/01/27 08:25:36;;;;;;;38.90;17.00;;;;;;;;;;5074676;28;20040;-69
2022/01/27 08:28:06;;;;;;;36.83;16.38;;;;;;;;;;5092551;28;20491;-68
2022/01/27 08:30:40;;;;;;;42.55;17.90;;;;;;;;;;5094064;28;20044;-68
2022/01/27 08:33:14;;;;;;;38.00;16.95;;;;;;;;;;5093064;28;20059;-68
2022/01/27 08:35:40;;;;;;;41.53;18.08;;;;;;;;;;5074913;28;20102;-68
2022/01/27 08:38:06;;;;;;;44.38;18.85;;;;;;;;;;5092785;28;20040;-69
2022/01/27 08:40:32;;;;;;;38.70;18.73;;;;;;;;;;5092699;28;20449;-68
2022/01/27 08:42:58;;;;;;;48.88;21.83;;;;;;;;;;5075139;28;20079;-68
2022/01/27 08:45:25;;;;;;;50.53;19.90;;;;;;;;;;5093404;28;20048;-68
2022/01/27 08:47:52;;;;;;;47.13;20.13;;;;;;;;;;5077835;28;20075;-68
2022/01/27 08:50:20;;;;;;;50.17;20.63;;;;;;;;;;5092870;28;20044;-68
2022/01/27 08:52:47;;;;;;;58.55;22.08;;;;;;;;;;5074617;28;20059;-69
2022/01/27 08:55:13;;;;;;;47.05;19.52;;;;;;;;;;5075087;28;20067;-69
2022/01/27 08:57:40;;;;;;;65.72;23.02;;;;;;;;;;5074674;28;20055;-69
2022/01/27 09:00:07;;;;;;;58.13;22.42;;;;;;;;;;5057714;28;20048;-68
2022/01/27 09:02:33;;;;;;;56.75;22.42;;;;;;;;;;5093017;28;20048;-67
2022/01/27 09:04:59;;;;;;;55.30;21.58;;;;;;;;;;5058144;28;20044;-67
2022/01/27 09:07:25;;;;;;;59.95;21.90;;;;;;;;;;5074240;28;20428;-70
2022/01/27 09:09:51;;;;;;;62.78;21.08;;;;;;;;;;5057826;28;20047;-68
2022/01/27 09:12:17;;;;;;;49.50;19.08;;;;;;;;;;5092719;28;20044;-69
2022/01/27 09:14:43;;;;;;;53.38;19.80;;;;;;;;;;5092789;28;20437;-69
2022/01/27 09:17:13;;;;;;;52.75;20.20;;;;;;;;;;5092586;28;20051;-69
2022/01/27 09:19:41;;;;;;;46.92;17.05;;;;;;;;;;5094092;28;20127;-70
2022/01/27 09:22:12;;;;;;;57.55;18.90;;;;;;;;;;5077918;28;20048;-69
2022/01/27 09:24:59;;;;;;;49.08;19.52;;;;;;;;;;5077932;28;20407;-69
2022/01/27 09:27:26;;;;;;;45.85;17.95;;;;;;;;;;5096253;28;20109;-69
2022/01/27 09:29:52;;;;;;;51.30;17.60;;;;;;;;;;5077737;28;20044;-70
2022/01/27 09:32:19;;;;;;;55.15;17.40;;;;;;;;;;5095808;28;20557;-69
2022/01/27 09:34:45;;;;;;;43.22;16.73;;;;;;;;;;5095668;28;20043;-69
2022/01/27 09:37:12;;;;;;;50.25;17.23;;;;;;;;;;5077699;28;20449;-69
2022/01/27 09:39:38;;;;;;;40.15;16.42;;;;;;;;;;5095892;28;20044;-69
2022/01/27 09:42:06;;;;;;;37.38;13.60;;;;;;;;;;5077630;28;20056;-69
2022/01/27 09:44:33;;;;;;;44.25;15.90;;;;;;;;;;5077475;28;20044;-70
2022/01/27 09:47:04;;;;;;;41.03;13.55;;;;;;;;;;5095706;28;20080;-69
2022/01/27 09:49:32;;;;;;;50.55;14.52;;;;;;;;;;5077621;28;20071;-69
2022/01/27 09:51:59;;;;;;;47.88;14.30;;;;;;;;;;5095700;28;20044;-68
2022/01/27 09:54:25;;;;;;;39.78;13.73;;;;;;;;;;5061172;28;20059;-68
2022/01/27 09:56:53;;;;;;;36.13;13.65;;;;;;;;;;5074026;28;20170;-68
2022/01/27 09:59:19;;;;;;;51.75;15.43;;;;;;;;;;5073879;28;20447;-69
2022/01/27 10:02:05;;;;;;;39.35;13.45;;;;;;;;;;5090933;28;20047;-69
2022/01/27 10:04:48;;;;;;;32.33;11.95;;;;;;;;;;5095149;28;20082;-70
2022/01/27 10:07:15;;;;;;;35.88;12.60;;;;;;;;;;5095159;28;20399;-69
2022/01/27 10:09:55;;;;;;;32.17;11.85;;;;;;;;;;5077804;28;20475;-70
2022/01/27 10:12:33;;;;;;;32.85;11.43;;;;;;;;;;5077249;28;20103;-69
2022/01/27 10:15:01;;;;;;;30.38;11.93;;;;;;;;;;5076955;28;20048;-70
2022/01/27 10:17:29;;;;;;;101.07;20.08;;;;;;;;;;5095245;28;20367;-69
2022/01/27 10:19:55;;;;;;;47.30;12.88;;;;;;;;;;5076599;28;20075;-70
2022/01/27 10:22:21;;;;;;;38.33;11.88;;;;;;;;;;5094881;28;20040;-69
2022/01/27 10:24:58;;;;;;;30.13;10.43;;;;;;;;;;5076705;28;20558;-68
2022/01/27 10:27:55;;;;;;;35.92;9.80;;;;;;;;;;5076653;28;20051;-68
2022/01/27 10:32:52;;;;;;;25.00;10.05;;;;;;;;;;5076652;28;20380;-69
2022/01/27 10:35:20;;;;;;;43.20;13.55;;;;;;;;;;5076560;28;20079;-68
2022/01/27 10:37:57;;;;;;;28.33;9.27;;;;;;;;;;5094864;28;20040;-68
2022/01/27 10:40:23;;;;;;;32.60;9.73;;;;;;;;;;5094565;28;20050;-68
2022/01/27 10:42:59;;;;;;;25.25;10.02;;;;;;;;;;5076224;28;20407;-68
2022/01/27 10:45:25;;;;;;;26.13;9.48;;;;;;;;;;5076151;28;20040;-69
2022/01/27 10:47:51;;;;;;;30.60;9.07;;;;;;;;;;5076205;28;20138;-69
2022/01/27 10:50:17;;;;;;;28.02;8.90;;;;;;;;;;5076467;28;20047;-68
2022/01/27 10:52:52;;;;;;;27.83;10.23;;;;;;;;;;5059833;28;20047;-69
2022/01/27 10:55:19;;;;;;;29.52;9.07;;;;;;;;;;5076060;28;20048;-68
2022/01/27 10:57:50;;;;;;;24.67;8.73;;;;;;;;;;5094162;28;20133;-68
2022/01/27 11:00:18;;;;;;;25.65;9.20;;;;;;;;;;5075711;28;20055;-69
2022/01/27 11:02:49;;;;;;;24.88;8.70;;;;;;;;;;5094317;28;20055;-68
2022/01/27 11:05:16;;;;;;;22.75;8.07;;;;;;;;;;5094150;28;20036;-68
2022/01/27 11:07:42;;;;;;;27.58;10.15;;;;;;;;;;5059232;28;20452;-68
2022/01/27 11:10:08;;;;;;;23.02;7.88;;;;;;;;;;5075701;28;20051;-68
2022/01/27 11:12:35;;;;;;;25.73;7.57;;;;;;;;;;5093977;28;20056;-68
2022/01/27 11:15:02;;;;;;;27.63;8.05;;;;;;;;;;5094435;28;20047;-68
2022/01/27 11:17:33;;;;;;;22.00;7.35;;;;;;;;;;5075895;28;20478;-68
2022/01/27 11:27:59;;;;;;;18.15;6.60;;;;;;;;;;5075470;28;20130;-69
2022/01/27 11:30:31;;;;;;;27.80;7.15;;;;;;;;;;5093688;28;20407;-68
2022/01/27 11:33:00;;;;;;;23.05;7.10;;;;;;;;;;5075866;28;20491;-68
2022/01/27 11:35:26;;;;;;;;;;;;;;;;;;5094309;28;20040;-69
2022/01/27 11:37:54;;;;;;;22.30;6.00;;;;;;;;;;5075628;28;20429;-68
2022/01/27 11:40:20;;;;;;;21.80;5.28;;;;;;;;;;5093811;28;20039;-68
2022/01/27 11:42:55;;;;;;;33.38;8.00;;;;;;;;;;5093006;28;20044;-68
2022/01/27 11:45:21;;;;;;;21.60;5.60;;;;;;;;;;5058682;28;20437;-68
2022/01/27 11:47:49;;;;;;;23.90;5.80;;;;;;;;;;5093474;28;20127;-68
2022/01/27 11:50:31;;;;;;;24.27;6.15;;;;;;;;;;5093479;28;20052;-68
2022/01/27 11:52:57;;;;;;;33.90;7.38;;;;;;;;;;5075293;28;20406;-68
2022/01/27 11:55:26;;;;;;;20.90;4.80;;;;;;;;;;5093353;28;20115;-70
2022/01/27 11:57:52;;;;;;;;;;;;;;;;;;5093708;28;20047;-70
2022/01/27 12:00:19;;;;;;;19.20;4.82;;;;;;;;;;5092431;28;19920;-68
2022/01/27 12:02:57;;;;;;;16.38;4.60;;;;;;;;;;5093178;28;20048;-69
2022/01/27 12:05:24;;;;;;;24.30;5.50;;;;;;;;;;5074836;28;20043;-68
2022/01/27 12:08:09;;;;;;;36.13;7.50;;;;;;;;;;5074655;28;20079;-69
2022/01/27 12:10:57;;;;;;;52.15;9.00;;;;;;;;;;5093023;28;20082;-68
2022/01/27 12:16:57;;;;;;;19.40;4.40;;;;;;;;;;5074809;28;20064;-68
2022/01/27 12:19:01;;;;;;;34.03;6.55;;;;;;;;;;5071265;28;20075;-68
2022/01/27 12:21:36;;;;;;;22.88;5.50;;;;;;;;;;5058121;28;20130;-68
2022/01/27 12:24:24;;;;;;;27.20;5.75;;;;;;;;;;5058641;28;20090;-69
2022/01/27 12:27:04;;;;;;;31.77;8.27;;;;;;;;;;5092955;28;20495;-70
2022/01/27 12:29:35;;;;;;;32.65;5.80;;;;;;;;;;5058231;28;20391;-68
2022/01/27 12:32:04;;;;;;;23.63;4.53;;;;;;;;;;5093095;28;20036;-69
2022/01/27 12:34:31;;;;;;;31.45;5.10;;;;;;;;;;5074786;28;20047;-67
2022/01/27 12:37:04;;;;;;;27.60;5.38;;;;;;;;;;5074656;28;20055;-67
2022/01/27 12:39:31;;;;;;;27.75;5.05;;;;;;;;;;5092944;28;20403;-67
2022/01/27 12:42:00;;;;;;;33.92;6.80;;;;;;;;;;5092692;28;20051;-67
2022/01/27 12:44:28;;;;;;;33.35;6.40;;;;;;;;;;5074851;28;20040;-68
2022/01/27 12:47:03;;;;;;;13.98;2.63;;;;;;;;;;5093384;28;20503;-68
2022/01/27 12:49:41;;;;;;;26.27;4.40;;;;;;;;;;5075079;28;20044;-68
2022/01/27 12:52:09;;;;;;;17.23;3.73;;;;;;;;;;5058198;28;20051;-69
2022/01/27 12:54:36;;;;;;;28.67;5.17;;;;;;;;;;5087744;28;20418;-68
2022/01/27 12:57:02;;;;;;;24.40;4.13;;;;;;;;;;5055642;28;20287;-68
2022/01/27 12:59:35;;;;;;;18.38;4.30;;;;;;;;;;5057950;28;20492;-69
2022/01/27 13:02:04;;;;;;;52.75;9.55;;;;;;;;;;5074564;28;20511;-69
2022/01/27 13:04:30;;;;;;;16.27;3.38;;;;;;;;;;5057913;28;20048;-68
2022/01/27 13:06:57;;;;;;;16.33;3.50;;;;;;;;;;5075421;28;20134;-67
2022/01/27 13:09:25;;;;;;;12.45;2.90;;;;;;;;;;5061678;28;20055;-67
2022/01/27 13:11:53;;;;;;;16.13;3.37;;;;;;;;;;5096200;28;20483;-67
2022/01/27 13:14:19;;;;;;;26.10;4.50;;;;;;;;;;5096418;28;20048;-67
2022/01/27 13:16:59;;;;;;;18.60;3.10;;;;;;;;;;5078021;28;20067;-68
2022/01/27 13:19:41;;;;;;;23.23;5.20;;;;;;;;;;5096249;28;20032;-68
2022/01/27 13:22:13;;;;;;;36.50;6.57;;;;;;;;;;5078164;28;20048;-67
2022/01/27 13:24:47;;;;;;;29.55;4.22;;;;;;;;;;5078057;28;20140;-68
2022/01/27 13:27:13;;;;;;;16.33;3.45;;;;;;;;;;5096444;28;20044;-69
2022/01/27 13:29:44;;;;;;;19.92;3.75;;;;;;;;;;5096090;28;20040;-68
2022/01/27 13:32:10;;;;;;;17.77;3.50;;;;;;;;;;5095970;28;20055;-68
2022/01/27 13:34:41;;;;;;;30.30;4.95;;;;;;;;;;5096017;28;20055;-68
2022/01/27 13:37:07;;;;;;;20.23;4.05;;;;;;;;;;5062502;28;20507;-67
2022/01/27 13:42:19;;;;;;;23.17;3.50;;;;;;;;;;5077710;28;20044;-68
2022/01/27 13:44:55;;;;;;;27.92;4.28;;;;;;;;;;5077887;28;20098;-68
2022/01/27 13:47:26;;;;;;;31.45;5.20;;;;;;;;;;5095900;28;20043;-68
2022/01/27 13:49:52;;;;;;;18.50;3.42;;;;;;;;;;5077850;28;20097;-69
2022/01/27 13:52:19;;;;;;;21.83;3.42;;;;;;;;;;5060848;28;20044;-67
2022/01/27 13:54:46;;;;;;;20.63;3.78;;;;;;;;;;5095363;28;20556;-67
2022/01/27 13:57:12;;;;;;;17.45;2.80;;;;;;;;;;5095284;28;20094;-67
2022/01/27 13:59:51;;;;;;;16.45;3.05;;;;;;;;;;5095485;28;20551;-67
2022/01/27 14:02:26;;;;;;;19.17;3.25;;;;;;;;;;5095912;28;20056;-67
2022/01/27 14:04:53;;;;;;;29.83;4.45;;;;;;;;;;5094861;28;20388;-67
2022/01/27 14:07:30;;;;;;;33.38;5.47;;;;;;;;;;5095294;28;20048;-67
2022/01/27 14:09:56;;;;;;;45.97;8.73;;;;;;;;;;5077194;28;20055;-68
2022/01/27 14:12:31;;;;;;;31.75;5.95;;;;;;;;;;5077155;28;20040;-67
2022/01/27 14:14:57;;;;;;;17.80;2.92;;;;;;;;;;5095422;28;20051;-67
2022/01/27 14:17:31;;;;;;;22.50;3.17;;;;;;;;;;5077073;28;20070;-67
2022/01/27 14:19:57;;;;;;;18.92;2.90;;;;;;;;;;5076673;28;20503;-68
2022/01/27 14:22:29;;;;;;;20.13;3.30;;;;;;;;;;5077081;28;20059;-68
2022/01/27 14:25:02;;;;;;;24.40;2.88;;;;;;;;;;5076886;28;20171;-67
2022/01/27 14:27:42;;;;;;;37.88;5.78;;;;;;;;;;5094974;28;20048;-67
2022/01/27 14:30:12;;;;;;;17.60;2.60;;;;;;;;;;5076794;28;20047;-67
2022/01/27 14:32:38;;;;;;;17.70;3.25;;;;;;;;;;5094567;28;20040;-67
2022/01/27 14:35:07;;;;;;;21.55;2.08;;;;;;;;;;5076884;28;20130;-68
2022/01/27 14:37:34;;;;;;;14.68;2.45;;;;;;;;;;5095692;28;20123;-68
2022/01/27 14:40:01;;;;;;;17.85;2.45;;;;;;;;;;5094782;28;20127;-67
2022/01/27 14:42:27;;;;;;;23.88;3.60;;;;;;;;;;5059994;28;20054;-68
2022/01/27 14:44:53;;;;;;;20.30;4.07;;;;;;;;;;5077402;28;20048;-67
2022/01/27 14:47:20;;;;;;;18.33;3.05;;;;;;;;;;5076412;28;20109;-67
2022/01/27 14:49:50;;;;;;;17.98;3.38;;;;;;;;;;5094561;28;20087;-67
2022/01/27 14:52:20;;;;;;;17.23;3.30;;;;;;;;;;5094506;28;20055;-67
2022/01/27 14:54:46;;;;;;;55.70;9.27;;;;;;;;;;5094396;28;20048;-68
2022/01/27 14:57:13;;;;;;;37.53;6.43;;;;;;;;;;5075964;28;20048;-68
2022/01/27 14:59:40;;;;;;;216.50;35.17;;;;;;;;;;5059554;28;20044;-68
2022/01/27 15:02:06;;;;;;;25.75;4.78;;;;;;;;;;5094383;28;20067;-69
2022/01/27 15:04:34;;;;;;;29.88;4.95;;;;;;;;;;5094232;28;20104;-70
2022/01/27 15:07:04;;;;;;;55.13;8.48;;;;;;;;;;5094280;28;20394;-68
2022/01/27 15:09:30;;;;;;;49.03;7.22;;;;;;;;;;5094001;28;20403;-69
2022/01/27 15:11:56;;;;;;;28.48;4.32;;;;;;;;;;5075819;28;20059;-67
2022/01/27 15:19:52;;;;;;;21.33;3.38;;;;;;;;;;5093877;28;20549;-65
2022/01/27 15:22:20;;;;;;;19.33;2.35;;;;;;;;;;5075880;28;20072;-67
2022/01/27 15:24:46;;;;;;;19.92;2.80;;;;;;;;;;5093583;28;20145;-66